createdAt,value
2023-05-07T00:00:10.400Z,234.45
2023-05-07T00:02:40.610Z,304.17
2023-05-07T00:05:10.401Z,392.58
2023-05-07T00:07:39.688Z,236.30
2023-05-07T00:10:09.742Z,284.90
2023-05-07T00:12:39.013Z,187.85
2023-05-07T00:15:09.794Z,130.85
2023-05-07T00:17:40.177Z,663.78
2023-05-07T00:20:10.475Z,200.23
2023-05-07T00:22:39.094Z,62.38
2023-05-07T00:25:08.414Z,21.42
2023-05-07T00:27:37.281Z,79.05
2023-05-07T00:30:06.775Z,55.08
2023-05-07T00:32:35.268Z,107.63
2023-05-07T00:35:05.386Z,24.40
2023-05-07T00:37:34.041Z,29.27
2023-05-07T00:40:04.994Z,18.45
2023-05-07T00:42:34.857Z,11.73
2023-05-07T00:45:04.461Z,13.73
2023-05-07T00:47:34.791Z,71.72
2023-05-07T00:50:06.755Z,29.23
2023-05-07T00:52:35.357Z,14.40
2023-05-07T00:55:08.044Z,4.97
2023-05-07T00:57:40.735Z,3.85
2023-05-07T01:00:12.056Z,6.07
2023-05-07T01:02:40.910Z,6.32
2023-05-07T01:05:19.619Z,3.15
2023-05-07T01:07:49.585Z,3.60
2023-05-07T01:10:18.367Z,29.92
2023-05-07T01:12:48.265Z,74.65
2023-05-07T01:15:16.799Z,78.75
2023-05-07T01:17:45.652Z,117.60
2023-05-07T01:20:16.989Z,213.85
2023-05-07T01:22:47.546Z,256.25
2023-05-07T01:25:17.386Z,92.93
2023-05-07T01:27:46.264Z,114.68
2023-05-07T01:30:15.259Z,194.07
2023-05-07T01:32:48.748Z,134.10
2023-05-07T01:35:21.549Z,31.02
2023-05-07T01:37:52.575Z,7.72
2023-05-07T01:40:23.345Z,7.65
2023-05-07T01:42:51.487Z,6.20
2023-05-07T01:45:19.794Z,8.18
2023-05-07T01:47:48.931Z,3.20
2023-05-07T01:50:19.266Z,4.82
2023-05-07T01:52:47.464Z,2.25
2023-05-07T01:55:17.097Z,3.20
2023-05-07T01:57:45.712Z,2.15
2023-05-07T02:00:15.147Z,2.20
2023-05-07T02:02:43.657Z,2.42
2023-05-07T02:05:12.153Z,1.67
2023-05-07T02:07:40.339Z,3.95
2023-05-07T02:10:09.689Z,2.53
2023-05-07T02:12:39.660Z,7.53
2023-05-07T02:15:08.954Z,5.60
2023-05-07T02:17:38.714Z,5.13
2023-05-07T02:20:14.567Z,8.93
2023-05-07T02:22:42.849Z,4.80
2023-05-07T02:25:11.329Z,3.28
2023-05-07T02:27:40.760Z,4.53
2023-05-07T02:30:10.383Z,4.18
2023-05-07T02:32:38.984Z,3.42
2023-05-07T02:35:08.023Z,2.92
2023-05-07T02:37:36.515Z,19.70
2023-05-07T02:40:05.666Z,29.70
2023-05-07T02:42:33.849Z,8.85
2023-05-07T02:45:03.898Z,14.75
2023-05-07T02:47:31.987Z,11.43
2023-05-07T02:50:00.476Z,3.47
2023-05-07T02:52:28.966Z,3.35
2023-05-07T02:54:57.747Z,4.53
2023-05-07T02:57:26.227Z,6.53
2023-05-07T02:59:54.614Z,12.48
2023-05-07T03:02:24.731Z,3.95
2023-05-07T03:04:53.071Z,6.78
2023-05-07T03:07:21.653Z,5.78
2023-05-07T03:09:50.092Z,2.75
2023-05-07T03:12:18.216Z,3.97
2023-05-07T03:14:46.352Z,5.00
2023-05-07T03:17:14.796Z,4.28
2023-05-07T03:19:44.383Z,3.72
2023-05-07T03:22:12.575Z,3.65
2023-05-07T03:24:40.785Z,5.53
2023-05-07T03:27:08.901Z,5.78
2023-05-07T03:29:37.168Z,3.55
2023-05-07T03:32:05.575Z,6.68
2023-05-07T03:34:33.861Z,4.45
2023-05-07T03:37:03.469Z,3.55
2023-05-07T03:39:31.639Z,3.53
2023-05-07T03:42:00.933Z,5.45
2023-05-07T03:44:29.004Z,6.00
2023-05-07T03:46:57.613Z,5.10
2023-05-07T03:49:26.285Z,4.65
2023-05-07T03:51:54.694Z,4.47
2023-05-07T03:54:24.379Z,3.53
2023-05-07T03:56:52.483Z,3.22
2023-05-07T03:59:20.630Z,4.57
2023-05-07T04:01:49.695Z,4.43
2023-05-07T04:04:18.172Z,3.38
2023-05-07T04:06:46.768Z,4.18
2023-05-07T04:09:15.115Z,9.35
2023-05-07T04:11:44.801Z,3.58
2023-05-07T04:14:13.497Z,5.25
2023-05-07T04:16:41.707Z,3.88
2023-05-07T04:19:10.262Z,3.90
2023-05-07T04:21:39.678Z,5.40
2023-05-07T04:24:08.450Z,5.40
2023-05-07T04:26:37.158Z,3.75
2023-05-07T04:29:06.757Z,3.65
2023-05-07T04:31:35.020Z,4.40
2023-05-07T04:34:03.432Z,8.10
2023-05-07T04:36:31.716Z,6.28
2023-05-07T04:38:59.799Z,4.57
2023-05-07T04:41:29.248Z,4.85
2023-05-07T04:43:57.971Z,5.30
2023-05-07T04:46:27.800Z,5.22
2023-05-07T04:48:55.989Z,5.22
2023-05-07T04:51:24.292Z,8.05
2023-05-07T04:53:52.432Z,5.10
2023-05-07T04:56:21.445Z,4.93
2023-05-07T04:58:49.564Z,4.78
2023-05-07T05:01:17.649Z,4.38
2023-05-07T05:03:47.740Z,4.10
2023-05-07T05:06:16.036Z,6.32
2023-05-07T05:08:44.395Z,5.38
2023-05-07T05:11:12.667Z,6.85
2023-05-07T05:13:40.772Z,6.38
2023-05-07T05:16:09.350Z,6.68
2023-05-07T05:18:38.336Z,6.82
2023-05-07T05:21:08.158Z,5.97
2023-05-07T05:23:36.514Z,5.68
2023-05-07T05:26:04.710Z,6.90
2023-05-07T05:28:32.889Z,7.43
2023-05-07T05:31:01.456Z,7.93
2023-05-07T05:33:29.945Z,5.00
2023-05-07T05:35:58.446Z,7.18
2023-05-07T05:38:28.165Z,7.45
2023-05-07T05:40:56.776Z,5.72
2023-05-07T05:43:25.319Z,8.15
2023-05-07T05:45:53.938Z,6.90
2023-05-07T05:48:22.119Z,6.55
2023-05-07T05:50:50.300Z,6.95
2023-05-07T05:53:18.552Z,6.00
2023-05-07T05:55:48.527Z,6.70
2023-05-07T05:58:17.325Z,8.02
2023-05-07T06:00:46.767Z,6.32
2023-05-07T06:03:14.979Z,7.38
2023-05-07T06:05:43.053Z,7.05
2023-05-07T06:08:11.363Z,6.13
2023-05-07T06:10:39.913Z,6.88
2023-05-07T06:13:09.785Z,5.75
2023-05-07T06:15:38.765Z,5.57
2023-05-07T06:18:07.331Z,6.88
2023-05-07T06:20:35.974Z,5.82
2023-05-07T06:23:04.012Z,6.60
2023-05-07T06:25:32.192Z,4.65
2023-05-07T06:28:00.584Z,5.18
2023-05-07T06:30:30.423Z,5.78
2023-05-07T06:33:00.013Z,6.05
2023-05-07T06:35:28.316Z,5.55
2023-05-07T06:37:56.773Z,7.45
2023-05-07T06:40:25.773Z,5.40
2023-05-07T06:42:53.881Z,4.78
2023-05-07T06:45:22.731Z,7.78
2023-05-07T06:47:52.393Z,8.23
2023-05-07T06:50:21.094Z,5.88
2023-05-07T06:52:49.442Z,8.75
2023-05-07T06:55:17.953Z,5.95
2023-05-07T06:57:46.409Z,5.18
2023-05-07T07:00:15.886Z,4.68
2023-05-07T07:02:44.673Z,4.88
2023-05-07T07:05:14.717Z,5.18
2023-05-07T07:07:43.264Z,6.75
2023-05-07T07:10:12.609Z,5.07
2023-05-07T07:12:40.884Z,6.32
2023-05-07T07:15:10.902Z,4.53
2023-05-07T07:17:39.219Z,7.75
2023-05-07T07:20:10.272Z,5.22
2023-05-07T07:22:41.274Z,7.50
2023-05-07T07:25:11.216Z,5.32
2023-05-07T07:27:41.265Z,5.50
2023-05-07T07:30:10.436Z,4.60
2023-05-07T07:32:38.981Z,4.88
2023-05-07T07:35:08.812Z,4.43
2023-05-07T07:37:37.800Z,4.22
2023-05-07T07:40:09.365Z,5.43
2023-05-07T07:42:37.853Z,4.95
2023-05-07T07:45:07.424Z,4.28
2023-05-07T07:47:35.719Z,6.97
2023-05-07T07:50:04.080Z,4.20
2023-05-07T07:52:32.339Z,5.22
2023-05-07T07:55:00.892Z,4.38
2023-05-07T07:57:30.563Z,5.47
2023-05-07T07:59:58.800Z,3.45
2023-05-07T08:02:27.610Z,3.72
2023-05-07T08:04:56.939Z,4.07
2023-05-07T08:07:25.320Z,6.25
2023-05-07T08:09:54.026Z,5.18
2023-05-07T08:12:22.589Z,4.88
2023-05-07T08:14:52.315Z,3.47
2023-05-07T08:17:23.426Z,4.15
2023-05-07T08:19:52.159Z,3.92
2023-05-07T08:22:20.602Z,3.25
2023-05-07T08:24:48.624Z,6.82
2023-05-07T08:27:17.007Z,5.03
2023-05-07T08:29:48.683Z,4.18
2023-05-07T08:32:18.598Z,4.32
2023-05-07T08:34:47.444Z,3.83
2023-05-07T08:37:15.659Z,4.13
2023-05-07T08:39:43.979Z,4.00
2023-05-07T08:42:13.796Z,3.33
2023-05-07T08:44:43.572Z,3.97
2023-05-07T08:47:12.544Z,3.00
2023-05-07T08:49:42.773Z,4.63
2023-05-07T08:52:11.242Z,3.78
2023-05-07T08:54:40.386Z,3.38
2023-05-07T08:57:08.658Z,8.15
2023-05-07T08:59:38.283Z,3.92
2023-05-07T09:02:10.821Z,2.90
2023-05-07T09:04:39.377Z,3.17
2023-05-07T09:07:10.137Z,3.33
2023-05-07T09:09:38.765Z,3.80
2023-05-07T09:12:07.602Z,2.65
2023-05-07T09:14:35.930Z,3.50
2023-05-07T09:17:04.436Z,4.40
2023-05-07T09:19:32.926Z,2.80
2023-05-07T09:22:02.154Z,4.45
2023-05-07T09:24:35.996Z,3.03
2023-05-07T09:29:36.790Z,3.28
2023-05-07T09:32:07.629Z,2.45
2023-05-07T09:34:36.838Z,1.83
2023-05-07T09:37:06.418Z,3.60
2023-05-07T09:39:47.066Z,4.28
2023-05-07T09:42:16.146Z,2.80
2023-05-07T09:44:46.311Z,4.07
2023-05-07T09:47:20.161Z,3.78
2023-05-07T09:49:50.401Z,2.83
2023-05-07T09:52:19.315Z,2.35
2023-05-07T09:54:50.941Z,2.83
2023-05-07T09:57:21.640Z,4.18
2023-05-07T09:59:52.065Z,3.92
2023-05-07T10:02:21.867Z,2.67
2023-05-07T10:04:52.123Z,3.85
2023-05-07T10:07:21.124Z,2.92
2023-05-07T10:09:52.689Z,2.65
2023-05-07T10:12:21.663Z,2.28
2023-05-07T10:14:51.394Z,2.50
2023-05-07T10:17:20.580Z,2.40
2023-05-07T10:19:49.184Z,2.22
2023-05-07T10:22:19.321Z,1.85
2023-05-07T10:24:51.087Z,2.97
2023-05-07T10:27:21.720Z,1.90
2023-05-07T10:30:00.239Z,2.40
2023-05-07T10:32:41.496Z,5.18
2023-05-07T10:35:16.662Z,2.10
2023-05-07T10:37:46.230Z,2.20
2023-05-07T10:40:16.271Z,3.03
2023-05-07T10:43:00.775Z,3.33
2023-05-07T10:45:29.128Z,2.65
2023-05-07T10:48:27.900Z,2.53
2023-05-07T10:51:23.904Z,2.08
2023-05-07T10:54:22.103Z,2.03
2023-05-07T10:56:51.885Z,2.25
2023-05-07T10:59:45.029Z,4.15
2023-05-07T11:02:15.429Z,2.35
2023-05-07T11:04:44.112Z,2.33
2023-05-07T11:07:28.464Z,1.88
2023-05-07T11:10:06.935Z,2.47
2023-05-07T11:12:57.646Z,2.28
2023-05-07T11:15:54.143Z,3.08
2023-05-07T11:18:22.682Z,3.38
2023-05-07T11:21:01.645Z,4.32
2023-05-07T11:23:59.007Z,3.42
2023-05-07T11:26:28.361Z,3.53
2023-05-07T11:28:57.965Z,2.72
2023-05-07T11:31:31.221Z,2.50
2023-05-07T11:34:00.296Z,3.50
2023-05-07T11:36:33.979Z,3.05
2023-05-07T11:39:02.585Z,1.98
2023-05-07T11:41:38.446Z,2.38
2023-05-07T11:44:07.223Z,3.22
2023-05-07T11:46:37.228Z,2.15
2023-05-07T11:49:05.758Z,2.80
2023-05-07T11:51:34.228Z,4.50
2023-05-07T11:54:03.139Z,2.38
2023-05-07T11:56:31.513Z,7.90
2023-05-07T11:59:00.294Z,2.13
2023-05-07T12:01:29.358Z,3.05
2023-05-07T12:03:59.199Z,2.00
2023-05-07T12:06:28.299Z,5.00
2023-05-07T12:08:57.000Z,2.53
2023-05-07T12:11:26.456Z,2.53
2023-05-07T12:13:59.244Z,1.73
2023-05-07T12:16:28.754Z,2.42
2023-05-07T12:19:00.142Z,1.98
2023-05-07T12:21:28.745Z,2.13
2023-05-07T12:23:57.731Z,4.20
2023-05-07T12:26:27.375Z,2.50
2023-05-07T12:29:00.978Z,2.10
2023-05-07T12:31:31.034Z,2.60
2023-05-07T12:34:01.595Z,3.35
2023-05-07T12:36:39.837Z,2.05
2023-05-07T12:39:08.914Z,2.00
2023-05-07T12:41:54.896Z,2.50
2023-05-07T12:44:25.390Z,2.30
2023-05-07T12:46:53.990Z,2.88
2023-05-07T12:49:26.716Z,3.72
2023-05-07T12:51:56.728Z,2.22
2023-05-07T12:54:31.960Z,3.28
2023-05-07T12:57:04.550Z,1.92
2023-05-07T12:59:37.752Z,1.80
2023-05-07T13:02:07.011Z,2.08
2023-05-07T13:04:37.050Z,3.53
2023-05-07T13:07:05.883Z,2.80
2023-05-07T13:09:34.902Z,2.63
2023-05-07T13:12:03.656Z,1.77
2023-05-07T13:14:32.313Z,1.60
2023-05-07T13:17:00.645Z,2.38
2023-05-07T13:19:31.402Z,1.67
2023-05-07T13:22:01.984Z,2.05
2023-05-07T13:24:30.493Z,2.45
2023-05-07T13:26:58.956Z,1.92
2023-05-07T13:29:31.140Z,1.90
2023-05-07T13:32:00.395Z,2.22
2023-05-07T13:34:28.634Z,2.30
2023-05-07T13:36:57.145Z,2.22
2023-05-07T13:39:26.797Z,1.85
2023-05-07T13:41:55.209Z,3.10
2023-05-07T13:44:23.605Z,2.35
2023-05-07T13:46:52.545Z,3.13
2023-05-07T13:49:21.167Z,4.90
2023-05-07T13:51:50.013Z,2.53
2023-05-07T13:54:18.247Z,4.00
2023-05-07T13:56:47.993Z,2.17
2023-05-07T13:59:16.858Z,2.33
2023-05-07T14:01:45.342Z,2.45
2023-05-07T14:04:13.611Z,2.35
2023-05-07T14:06:42.503Z,2.67
2023-05-07T14:09:13.329Z,2.67
2023-05-07T14:11:42.062Z,2.88
2023-05-07T14:14:13.148Z,2.63
2023-05-07T14:16:41.539Z,2.25
2023-05-07T14:19:10.150Z,2.08
2023-05-07T14:21:38.356Z,2.80
2023-05-07T14:24:08.724Z,2.80
2023-05-07T14:26:37.413Z,6.05
2023-05-07T14:29:06.078Z,4.15
2023-05-07T14:31:35.954Z,3.35
2023-05-07T14:34:04.642Z,2.55
2023-05-07T14:36:33.261Z,2.97
2023-05-07T14:39:02.159Z,2.42
2023-05-07T14:41:30.860Z,3.28
2023-05-07T14:44:00.102Z,2.70
2023-05-07T14:46:28.642Z,3.30
2023-05-07T14:48:59.111Z,3.97
2023-05-07T14:51:29.311Z,2.70
2023-05-07T14:53:57.980Z,2.40
2023-05-07T14:56:26.195Z,2.40
2023-05-07T14:58:54.547Z,3.40
2023-05-07T15:01:23.607Z,2.70
2023-05-07T15:03:52.212Z,2.90
2023-05-07T15:06:22.275Z,2.85
2023-05-07T15:08:50.951Z,2.85
2023-05-07T15:11:19.457Z,3.97
2023-05-07T15:13:48.346Z,3.70
2023-05-07T15:16:16.641Z,4.05
2023-05-07T15:18:45.716Z,4.05
2023-05-07T15:21:15.166Z,4.28
2023-05-07T15:23:45.558Z,3.35
2023-05-07T15:26:14.046Z,4.18
2023-05-07T15:28:42.374Z,2.50
2023-05-07T15:31:10.720Z,4.25
2023-05-07T15:33:38.912Z,9.60
2023-05-07T15:36:08.474Z,3.13
2023-05-07T15:38:37.459Z,3.83
2023-05-07T15:41:07.437Z,4.22
2023-05-07T15:43:36.670Z,4.50
2023-05-07T15:46:05.439Z,3.22
2023-05-07T15:48:34.170Z,6.05
2023-05-07T15:51:03.323Z,6.68
2023-05-07T15:53:31.493Z,3.55
2023-05-07T15:55:59.617Z,3.97
2023-05-07T15:58:30.291Z,3.72
2023-05-07T16:00:58.912Z,4.43
2023-05-07T16:03:28.915Z,4.72
2023-05-07T16:05:58.405Z,3.33
2023-05-07T16:08:26.727Z,3.72
2023-05-07T16:10:55.499Z,4.47
2023-05-07T16:13:25.098Z,3.80
2023-05-07T16:15:59.758Z,3.33
2023-05-07T16:18:28.204Z,4.32
2023-05-07T16:20:56.917Z,3.75
2023-05-07T16:23:25.244Z,2.88
2023-05-07T16:25:53.636Z,4.43
2023-05-07T16:28:24.127Z,4.57
2023-05-07T16:30:53.744Z,4.90
2023-05-07T16:33:23.336Z,5.05
2023-05-07T16:35:54.727Z,2.70
2023-05-07T16:38:23.250Z,4.05
2023-05-07T16:40:51.575Z,2.75
2023-05-07T16:43:20.168Z,3.22
2023-05-07T16:45:48.705Z,6.15
2023-05-07T16:48:18.576Z,3.70
2023-05-07T16:50:49.647Z,3.47
2023-05-07T16:53:17.904Z,3.47
2023-05-07T16:55:46.096Z,5.78
2023-05-07T16:58:15.655Z,4.90
2023-05-07T17:03:16.958Z,4.88
2023-05-07T17:05:45.094Z,4.72
2023-05-07T17:08:14.844Z,3.28
2023-05-07T17:10:43.307Z,2.80
2023-05-07T17:13:11.717Z,3.22
2023-05-07T17:15:41.282Z,4.45
2023-05-07T17:18:09.634Z,3.63
2023-05-07T17:20:40.424Z,4.32
2023-05-07T17:23:08.756Z,3.45
2023-05-07T17:25:38.461Z,2.83
2023-05-07T17:28:07.333Z,3.53
2023-05-07T17:30:36.399Z,3.05
2023-05-07T17:33:19.354Z,2.88
2023-05-07T17:35:50.058Z,2.65
2023-05-07T17:38:18.377Z,3.20
2023-05-07T17:40:48.610Z,4.10
2023-05-07T17:43:17.203Z,2.88
2023-05-07T17:45:46.035Z,3.00
2023-05-07T17:48:15.167Z,3.38
2023-05-07T17:50:44.551Z,2.85
2023-05-07T17:53:12.835Z,2.83
2023-05-07T17:55:43.971Z,4.03
2023-05-07T17:58:14.030Z,3.58
2023-05-07T18:00:43.177Z,3.33
2023-05-07T18:03:11.572Z,3.58
2023-05-07T18:05:40.884Z,3.58
2023-05-07T18:08:09.844Z,3.72
2023-05-07T18:10:38.053Z,3.50
2023-05-07T18:13:06.318Z,2.85
2023-05-07T18:15:36.519Z,3.55
2023-05-07T18:18:05.040Z,3.10
2023-05-07T18:20:33.908Z,2.70
2023-05-07T18:23:02.354Z,2.95
2023-05-07T18:25:31.349Z,4.22
2023-05-07T18:27:59.746Z,3.05
2023-05-07T18:30:27.832Z,2.78
2023-05-07T18:32:58.551Z,4.15
2023-05-07T18:35:27.271Z,2.70
2023-05-07T18:37:56.040Z,2.65
2023-05-07T18:40:24.670Z,2.83
2023-05-07T18:42:53.449Z,2.80
2023-05-07T18:45:22.156Z,4.03
2023-05-07T18:47:50.344Z,2.47
2023-05-07T18:50:20.828Z,2.20
2023-05-07T18:52:49.304Z,4.72
2023-05-07T18:55:18.614Z,3.58
2023-05-07T18:57:47.248Z,2.88
2023-05-07T19:00:17.600Z,3.08
2023-05-07T19:02:46.488Z,2.85
2023-05-07T19:05:15.433Z,2.38
2023-05-07T19:07:49.609Z,3.60
2023-05-07T19:10:18.949Z,4.47
2023-05-07T19:12:47.555Z,4.20
2023-05-07T19:15:16.047Z,3.83
2023-05-07T19:17:44.632Z,4.00
2023-05-07T19:20:13.963Z,3.92
2023-05-07T19:22:44.899Z,2.78
2023-05-07T19:25:15.138Z,2.95
2023-05-07T19:27:43.560Z,4.80
2023-05-07T19:30:12.354Z,3.22
2023-05-07T19:32:40.910Z,5.50
2023-05-07T19:35:10.215Z,3.53
2023-05-07T19:37:38.697Z,4.25
2023-05-07T19:40:10.154Z,4.93
2023-05-07T19:42:38.388Z,4.82
2023-05-07T19:45:07.566Z,3.47
2023-05-07T19:47:35.806Z,3.97
2023-05-07T19:50:04.158Z,5.90
2023-05-07T19:52:33.019Z,4.53
2023-05-07T19:55:01.354Z,10.35
2023-05-07T19:57:31.676Z,4.88
2023-05-07T20:00:00.152Z,5.13
2023-05-07T20:02:28.672Z,2.92
2023-05-07T20:04:57.308Z,6.00
2023-05-07T20:07:25.629Z,3.83
2023-05-07T20:09:54.133Z,5.78
2023-05-07T20:12:22.597Z,4.03
2023-05-07T20:14:52.173Z,4.50
2023-05-07T20:17:23.560Z,3.45
2023-05-07T20:19:52.069Z,4.55
2023-05-07T20:22:20.356Z,3.40
2023-05-07T20:24:48.762Z,3.28
2023-05-07T20:27:19.769Z,5.47
2023-05-07T20:29:48.476Z,3.33
2023-05-07T20:32:18.877Z,4.40
2023-05-07T20:34:47.429Z,5.10
2023-05-07T20:37:15.951Z,5.03
2023-05-07T20:39:46.451Z,8.25
2023-05-07T20:42:14.757Z,3.90
2023-05-07T20:44:43.219Z,7.25
2023-05-07T20:47:12.462Z,3.25
2023-05-07T20:49:42.025Z,3.75
2023-05-07T20:52:10.520Z,4.45
2023-05-07T20:54:40.958Z,7.65
2023-05-07T20:57:09.439Z,6.07
2023-05-07T20:59:40.205Z,4.60
2023-05-07T21:02:09.083Z,3.38
2023-05-07T21:04:37.309Z,3.05
2023-05-07T21:07:07.184Z,3.67
2023-05-07T21:09:35.486Z,4.55
2023-05-07T21:12:04.201Z,3.92
2023-05-07T21:14:33.430Z,3.75
2023-05-07T21:17:02.128Z,3.20
2023-05-07T21:19:30.866Z,4.93
2023-05-07T21:21:59.103Z,3.78
2023-05-07T21:24:28.846Z,5.90
2023-05-07T21:26:57.365Z,3.70
2023-05-07T21:29:25.996Z,3.17
2023-05-07T21:31:54.392Z,3.42
2023-05-07T21:34:22.564Z,3.47
2023-05-07T21:36:51.090Z,4.40
2023-05-07T21:39:19.522Z,5.05
2023-05-07T21:41:49.222Z,3.00
2023-05-07T21:44:17.634Z,3.58
2023-05-07T21:46:46.271Z,4.13
2023-05-07T21:49:14.759Z,3.85
2023-05-07T21:51:43.478Z,3.05
2023-05-07T21:54:11.596Z,3.97
2023-05-07T21:56:39.773Z,3.22
2023-05-07T21:59:09.539Z,3.83
2023-05-07T22:01:37.724Z,3.97
2023-05-07T22:04:06.499Z,3.33
2023-05-07T22:06:34.613Z,3.22
2023-05-07T22:09:03.623Z,3.72
2023-05-07T22:11:32.405Z,4.00
2023-05-07T22:14:00.810Z,3.97
2023-05-07T22:16:30.643Z,4.30
2023-05-07T22:18:58.692Z,3.53
2023-05-07T22:21:27.286Z,4.05
2023-05-07T22:23:55.460Z,3.50
2023-05-07T22:26:24.284Z,5.25
2023-05-07T22:28:53.090Z,4.15
2023-05-07T22:31:21.412Z,3.53
2023-05-07T22:33:51.547Z,3.08
2023-05-07T22:36:19.946Z,4.57
2023-05-07T22:38:48.131Z,3.28
2023-05-07T22:41:16.416Z,3.65
2023-05-07T22:43:44.648Z,4.03
2023-05-07T22:46:13.634Z,3.75
2023-05-07T22:48:42.022Z,4.70
2023-05-07T22:51:15.682Z,4.53
2023-05-07T22:53:44.565Z,3.60
2023-05-07T22:56:12.947Z,5.65
2023-05-07T22:58:41.338Z,4.20
2023-05-07T23:01:14.159Z,4.50
2023-05-07T23:03:42.557Z,4.38
2023-05-07T23:06:11.211Z,4.63
2023-05-07T23:08:40.698Z,4.93
2023-05-07T23:11:09.303Z,3.97
2023-05-07T23:13:37.753Z,3.35
2023-05-07T23:16:06.281Z,4.28
2023-05-07T23:18:34.642Z,3.63
2023-05-07T23:21:03.160Z,4.57
2023-05-07T23:23:33.887Z,4.47
2023-05-07T23:26:03.737Z,3.95
2023-05-07T23:28:32.869Z,3.40
2023-05-07T23:31:01.232Z,4.13
2023-05-07T23:33:29.856Z,3.55
2023-05-07T23:36:01.747Z,5.20
2023-05-07T23:38:29.983Z,4.03
2023-05-07T23:40:58.606Z,5.15
2023-05-07T23:43:28.580Z,3.95
2023-05-07T23:45:56.826Z,5.50
2023-05-07T23:48:25.010Z,4.90
2023-05-07T23:50:53.305Z,4.45
2023-05-07T23:53:22.086Z,5.93
2023-05-07T23:55:50.424Z,4.68
2023-05-07T23:58:18.659Z,4.97
